LRBC/BCM METAR and TAF weather

Enter ICAO airport designator
Station Type Date Time Source
LRBC METAR 2022/05/25 01:30 UTC NOAA

LRBC 250130Z 16008KT CAVOK 12/09 Q1015


Station Type Date Time Source
LRBC Decoded METAR 2022/05/25 01:30 UTC NOAA

Bacau, Romania (LRBC) 46-35N 026-58E 190M
May 24, 2022 - 09:30 PM EDT / 2022.05.25 0130 UTC
Wind: from the SSE (160 degrees) at 9 MPH (8 KT):0
Visibility: greater than 7 mile(s):0
Temperature: 53 F (12 C)
Dew Point: 48 F (9 C)
Relative Humidity: 81%
Pressure (altimeter): 29.97 in. Hg (1015 hPa)
ob: LRBC 250130Z 16008KT CAVOK 12/09 Q1015
cycle: 1

Station Type Date Time Source
LRBC TAF 2010/08/31 20:30 UTC NOAA

TAF LRBC 312030Z 3121/0203 CNL

Example: see airport list